createdAt,value
2023-05-09T00:01:13.396Z,13.52
2023-05-09T00:03:40.534Z,16.15
2023-05-09T00:06:07.256Z,15.45
2023-05-09T00:08:33.602Z,11.98
2023-05-09T00:10:59.908Z,14.07
2023-05-09T00:13:26.295Z,14.82
2023-05-09T00:18:22.012Z,13.30
2023-05-09T00:20:49.014Z,13.70
2023-05-09T00:23:16.472Z,12.98
2023-05-09T00:25:43.115Z,15.40
2023-05-09T00:28:09.434Z,13.73
2023-05-09T00:30:35.788Z,14.38
2023-05-09T00:33:02.408Z,13.98
2023-05-09T00:35:29.013Z,16.65
2023-05-09T00:37:55.306Z,15.43
2023-05-09T00:40:21.693Z,18.88
2023-05-09T00:42:47.986Z,16.85
2023-05-09T00:45:14.477Z,17.15
2023-05-09T00:47:41.159Z,18.45
2023-05-09T00:50:08.820Z,18.48
2023-05-09T00:52:36.002Z,16.58
2023-05-09T00:55:02.577Z,18.33
2023-05-09T00:57:29.029Z,20.23
2023-05-09T00:59:55.459Z,17.40
2023-05-09T01:02:22.014Z,18.27
2023-05-09T01:04:48.461Z,18.35
2023-05-09T01:07:48.646Z,22.10
2023-05-09T01:10:58.236Z,17.17
2023-05-09T01:13:35.595Z,19.30
2023-05-09T01:16:16.273Z,18.33
2023-05-09T01:18:48.911Z,19.35
2023-05-09T01:21:24.034Z,18.48
2023-05-09T01:24:17.732Z,18.17
2023-05-09T01:26:57.871Z,18.10
2023-05-09T01:29:33.155Z,18.05
2023-05-09T01:32:04.545Z,21.13
2023-05-09T01:34:33.728Z,19.77
2023-05-09T01:37:02.151Z,21.27
2023-05-09T01:39:31.750Z,20.52
2023-05-09T01:42:01.881Z,18.30
2023-05-09T01:44:35.293Z,18.38
2023-05-09T01:47:04.210Z,23.60
2023-05-09T01:49:33.422Z,21.25
2023-05-09T01:52:03.670Z,18.20
2023-05-09T01:54:30.896Z,19.00
2023-05-09T01:56:59.094Z,16.63
2023-05-09T01:59:27.893Z,18.02
2023-05-09T02:01:55.695Z,19.20
2023-05-09T02:04:22.352Z,18.75
2023-05-09T02:06:51.321Z,18.17
2023-05-09T02:09:19.245Z,20.17
2023-05-09T02:11:46.697Z,21.63
2023-05-09T02:14:13.849Z,19.80
2023-05-09T02:16:40.912Z,20.58
2023-05-09T02:19:07.368Z,20.60
2023-05-09T02:21:33.828Z,20.83
2023-05-09T02:24:00.333Z,18.88
2023-05-09T02:28:54.078Z,21.33
2023-05-09T02:31:22.645Z,20.13
2023-05-09T02:33:50.153Z,19.40
2023-05-09T02:36:17.200Z,20.38
2023-05-09T02:38:44.126Z,20.13
2023-05-09T02:41:16.337Z,18.90
2023-05-09T02:43:43.036Z,20.40
2023-05-09T02:46:10.421Z,22.85
2023-05-09T02:48:36.943Z,22.15
2023-05-09T02:53:29.565Z,23.70
2023-05-09T02:55:55.845Z,23.58
2023-05-09T02:58:22.145Z,25.15
2023-05-09T03:00:48.454Z,24.35
2023-05-09T03:03:14.925Z,21.08
2023-05-09T03:05:41.245Z,24.67
2023-05-09T03:08:07.533Z,23.58
2023-05-09T03:10:34.132Z,23.75
2023-05-09T03:15:27.169Z,26.95
2023-05-09T03:17:53.586Z,25.40
2023-05-09T03:20:20.097Z,26.00
2023-05-09T03:22:48.252Z,24.17
2023-05-09T03:25:14.706Z,24.52
2023-05-09T03:30:08.066Z,23.63
2023-05-09T03:32:34.407Z,24.42
2023-05-09T03:35:00.704Z,22.40
2023-05-09T03:37:27.309Z,22.40
2023-05-09T03:39:53.776Z,24.30
2023-05-09T03:42:20.238Z,23.40
2023-05-09T03:44:46.618Z,23.98
2023-05-09T03:47:12.994Z,23.30
2023-05-09T03:49:39.332Z,26.10
2023-05-09T03:52:05.792Z,24.92
2023-05-09T03:54:32.097Z,23.88
2023-05-09T03:56:58.400Z,24.40
2023-05-09T03:59:24.725Z,23.88
2023-05-09T04:01:51.206Z,22.73
2023-05-09T04:04:17.659Z,25.77
2023-05-09T04:06:43.974Z,20.55
2023-05-09T04:09:10.518Z,25.38
2023-05-09T04:14:06.853Z,23.27
2023-05-09T04:16:33.464Z,23.55
2023-05-09T04:21:26.271Z,25.10
2023-05-09T04:23:52.697Z,23.70
2023-05-09T04:26:19.006Z,22.95
2023-05-09T04:28:45.265Z,23.00
2023-05-09T04:31:12.847Z,22.70
2023-05-09T04:33:39.357Z,21.20
2023-05-09T04:36:06.091Z,24.20
2023-05-09T04:38:32.374Z,23.23
2023-05-09T04:40:58.759Z,22.77
2023-05-09T04:43:27.851Z,24.58
2023-05-09T04:45:54.321Z,24.35
2023-05-09T04:50:48.447Z,25.40
2023-05-09T04:53:14.793Z,22.42
2023-05-09T04:55:41.052Z,21.77
2023-05-09T04:58:09.079Z,23.60
2023-05-09T05:00:35.720Z,22.25
2023-05-09T05:03:02.168Z,23.20
2023-05-09T05:07:55.407Z,24.45
2023-05-09T05:10:21.698Z,23.58
2023-05-09T05:12:48.019Z,21.15
2023-05-09T05:15:14.647Z,23.17
2023-05-09T05:17:41.161Z,22.80
2023-05-09T05:20:10.388Z,22.30
2023-05-09T05:22:36.679Z,20.60
2023-05-09T05:25:04.498Z,21.90
2023-05-09T05:27:31.287Z,20.70
2023-05-09T05:29:57.694Z,21.48
2023-05-09T05:32:24.090Z,20.15
2023-05-09T05:34:50.473Z,21.73
2023-05-09T05:37:16.819Z,22.17
2023-05-09T05:39:43.175Z,22.75
2023-05-09T05:42:09.467Z,21.30
2023-05-09T05:44:35.744Z,23.67
2023-05-09T05:47:02.024Z,19.30
2023-05-09T05:49:28.359Z,22.55
2023-05-09T05:51:54.655Z,18.73
2023-05-09T05:54:20.985Z,20.77
2023-05-09T05:56:47.257Z,23.63
2023-05-09T05:59:13.725Z,19.65
2023-05-09T06:04:06.443Z,19.20
2023-05-09T06:08:59.047Z,20.85
2023-05-09T06:11:25.400Z,23.00
2023-05-09T06:13:51.711Z,20.95
2023-05-09T06:16:19.998Z,18.08
2023-05-09T06:18:47.698Z,19.73
2023-05-09T06:21:14.027Z,20.45
2023-05-09T06:23:47.274Z,21.52
2023-05-09T06:26:23.714Z,19.10
2023-05-09T06:28:50.105Z,23.63
2023-05-09T06:33:42.773Z,19.83
2023-05-09T06:36:09.193Z,19.80
2023-05-09T06:41:01.692Z,21.13
2023-05-09T06:43:27.977Z,21.63
2023-05-09T06:45:54.294Z,19.80
2023-05-09T06:48:20.693Z,19.73
2023-05-09T06:53:13.576Z,19.90
2023-05-09T06:55:40.002Z,22.02
2023-05-09T07:00:32.633Z,19.38
2023-05-09T07:02:58.975Z,20.95
2023-05-09T07:07:51.679Z,19.52
2023-05-09T07:10:17.980Z,19.60
2023-05-09T07:12:44.353Z,19.83
2023-05-09T07:17:37.540Z,20.25
2023-05-09T07:22:32.132Z,21.77
2023-05-09T07:24:59.369Z,21.42
2023-05-09T07:27:25.684Z,21.40
2023-05-09T07:32:19.449Z,18.48
2023-05-09T07:34:45.719Z,18.58
2023-05-09T07:37:13.674Z,19.42
2023-05-09T07:39:41.655Z,17.17
2023-05-09T07:42:08.375Z,18.80
2023-05-09T07:44:34.663Z,19.30
2023-05-09T07:47:02.428Z,17.45
2023-05-09T07:49:28.712Z,19.13
2023-05-09T07:54:21.273Z,19.05
2023-05-09T07:59:13.833Z,19.35
2023-05-09T08:04:08.886Z,18.83
2023-05-09T08:06:35.895Z,18.02
2023-05-09T08:09:02.237Z,19.08
2023-05-09T08:13:55.212Z,21.02
2023-05-09T08:16:21.564Z,21.38
2023-05-09T08:18:47.934Z,25.70
2023-05-09T08:23:41.182Z,20.70
2023-05-09T08:26:07.639Z,22.77
2023-05-09T08:28:34.171Z,20.38
2023-05-09T08:31:00.599Z,20.83
2023-05-09T08:33:26.951Z,19.30
2023-05-09T08:38:20.429Z,19.92
2023-05-09T08:40:47.060Z,19.48
2023-05-09T08:43:15.929Z,20.45
2023-05-09T08:45:54.153Z,21.33
2023-05-09T08:48:22.108Z,19.98
2023-05-09T08:50:49.142Z,23.30
2023-05-09T08:53:15.746Z,20.35
2023-05-09T08:55:42.233Z,21.10
2023-05-09T08:58:09.544Z,19.92
2023-05-09T09:00:37.452Z,21.02
2023-05-09T09:03:04.101Z,19.70
2023-05-09T09:05:41.326Z,19.98
2023-05-09T09:08:10.078Z,21.05
2023-05-09T09:10:40.508Z,16.95
2023-05-09T09:13:07.414Z,22.10
2023-05-09T09:15:36.754Z,18.02
2023-05-09T09:18:09.724Z,17.25
2023-05-09T09:20:41.553Z,22.33
2023-05-09T09:23:10.543Z,20.10
2023-05-09T09:25:37.084Z,21.08
2023-05-09T09:28:04.917Z,17.63
2023-05-09T09:30:31.204Z,18.55
2023-05-09T09:35:26.938Z,21.75
2023-05-09T09:40:26.665Z,16.75
2023-05-09T09:42:52.997Z,19.35
2023-05-09T09:47:48.038Z,17.48
2023-05-09T09:50:19.259Z,15.95
2023-05-09T09:52:53.681Z,16.38
2023-05-09T09:55:21.981Z,18.58
2023-05-09T09:57:48.761Z,18.25
2023-05-09T10:00:17.295Z,18.42
2023-05-09T10:02:50.810Z,14.63
2023-05-09T10:05:23.792Z,16.80
2023-05-09T10:07:54.914Z,17.02
2023-05-09T10:10:21.760Z,17.10
2023-05-09T10:12:50.405Z,18.30
2023-05-09T10:15:21.690Z,19.17
2023-05-09T10:17:53.657Z,16.42
2023-05-09T10:20:20.340Z,17.83
2023-05-09T10:22:46.963Z,18.35
2023-05-09T10:25:22.867Z,17.05
2023-05-09T10:27:52.259Z,16.55
2023-05-09T10:30:23.806Z,18.83
2023-05-09T10:32:53.917Z,19.63
2023-05-09T10:35:26.160Z,18.85
2023-05-09T10:37:56.481Z,23.95
2023-05-09T10:40:23.556Z,15.77
2023-05-09T10:42:50.255Z,13.20
2023-05-09T10:45:16.952Z,14.13
2023-05-09T10:47:45.029Z,14.32
2023-05-09T10:50:13.065Z,11.10
2023-05-09T10:53:05.524Z,13.30
2023-05-09T10:55:51.029Z,12.43
2023-05-09T10:58:28.742Z,12.85
2023-05-09T11:01:00.089Z,14.15
2023-05-09T11:03:28.116Z,11.18
2023-05-09T11:05:56.839Z,11.10
2023-05-09T11:08:23.421Z,12.55
2023-05-09T11:10:49.753Z,11.57
2023-05-09T11:13:25.343Z,12.90
2023-05-09T11:16:00.684Z,14.35
2023-05-09T11:18:32.695Z,10.77
2023-05-09T11:21:06.768Z,10.07
2023-05-09T11:23:33.185Z,9.52
2023-05-09T11:26:07.746Z,10.70
2023-05-09T11:28:36.317Z,11.60
2023-05-09T11:31:16.110Z,10.80
2023-05-09T11:33:47.670Z,8.43
2023-05-09T11:36:24.980Z,8.93
2023-05-09T11:39:01.939Z,9.73
2023-05-09T11:41:29.187Z,9.85
2023-05-09T11:43:56.793Z,9.15
2023-05-09T11:46:23.168Z,9.68
2023-05-09T11:48:49.694Z,10.90
2023-05-09T11:51:18.013Z,9.05
2023-05-09T11:53:46.774Z,9.77
2023-05-09T11:56:14.559Z,8.68
2023-05-09T11:58:40.997Z,9.15
2023-05-09T12:01:08.723Z,8.00
2023-05-09T12:03:35.933Z,7.55
2023-05-09T12:06:02.512Z,7.65
2023-05-09T12:08:29.065Z,7.68
2023-05-09T12:10:55.497Z,6.75
2023-05-09T12:13:21.807Z,6.70
2023-05-09T12:15:48.462Z,6.40
2023-05-09T12:18:16.957Z,7.53
2023-05-09T12:20:48.253Z,9.70
2023-05-09T12:23:15.102Z,6.90
2023-05-09T12:25:55.401Z,7.70
2023-05-09T12:28:23.750Z,9.27
2023-05-09T12:30:51.518Z,6.53
2023-05-09T12:33:18.541Z,7.18
2023-05-09T12:35:46.732Z,6.25
2023-05-09T12:38:21.519Z,6.07
2023-05-09T12:40:48.707Z,7.85
2023-05-09T12:43:17.662Z,5.60
2023-05-09T12:45:44.076Z,5.50
2023-05-09T12:48:11.762Z,6.40
2023-05-09T12:50:38.170Z,6.15
2023-05-09T12:53:04.590Z,6.93
2023-05-09T12:55:31.698Z,6.07
2023-05-09T12:58:00.542Z,6.75
2023-05-09T13:00:27.145Z,5.40
2023-05-09T13:02:53.811Z,4.88
2023-05-09T13:05:22.181Z,5.07
2023-05-09T13:07:52.040Z,6.20
2023-05-09T13:10:27.273Z,5.00
2023-05-09T13:12:53.805Z,5.95
2023-05-09T13:15:22.429Z,5.18
2023-05-09T13:17:51.076Z,5.72
2023-05-09T13:20:18.401Z,5.78
2023-05-09T13:22:46.288Z,6.55
2023-05-09T13:25:12.849Z,6.00
2023-05-09T13:27:39.339Z,5.82
2023-05-09T13:30:07.656Z,5.88
2023-05-09T13:32:35.019Z,5.15
2023-05-09T13:35:01.426Z,5.20
2023-05-09T13:37:28.123Z,6.13
2023-05-09T13:39:55.298Z,5.57
2023-05-09T13:42:21.624Z,6.65
2023-05-09T13:44:47.925Z,6.75
2023-05-09T13:47:14.198Z,5.43
2023-05-09T13:49:40.495Z,5.35
2023-05-09T13:52:06.836Z,7.30
2023-05-09T13:54:35.035Z,6.72
2023-05-09T13:57:04.822Z,5.53
2023-05-09T13:59:31.549Z,4.90
2023-05-09T14:01:59.700Z,5.53
2023-05-09T14:04:27.238Z,5.97
2023-05-09T14:06:56.728Z,7.22
2023-05-09T14:09:23.141Z,5.93
2023-05-09T14:11:51.539Z,5.63
2023-05-09T14:14:21.366Z,7.57
2023-05-09T14:16:48.359Z,6.35
2023-05-09T14:19:15.518Z,8.98
2023-05-09T14:21:42.952Z,5.80
2023-05-09T14:24:10.704Z,6.03
2023-05-09T14:26:36.996Z,5.20
2023-05-09T14:29:04.546Z,6.45
2023-05-09T14:31:31.211Z,6.75
2023-05-09T14:33:58.839Z,7.15
2023-05-09T14:36:25.866Z,8.13
2023-05-09T14:38:52.462Z,8.15
2023-05-09T14:41:21.331Z,10.80
2023-05-09T14:43:48.479Z,11.07
2023-05-09T14:46:14.848Z,18.92
2023-05-09T14:48:41.516Z,16.13
2023-05-09T14:51:08.390Z,13.60
2023-05-09T14:53:41.517Z,12.15
2023-05-09T14:56:10.322Z,13.50
2023-05-09T14:58:36.930Z,15.27
2023-05-09T15:01:07.000Z,16.70
2023-05-09T15:03:33.514Z,14.25
2023-05-09T15:08:26.860Z,18.17
2023-05-09T15:10:53.215Z,19.70
2023-05-09T15:15:46.083Z,17.27
2023-05-09T15:18:13.249Z,21.48
2023-05-09T15:20:39.711Z,25.02
2023-05-09T15:23:07.582Z,18.80
2023-05-09T15:25:34.557Z,19.25
2023-05-09T15:28:01.287Z,18.02
2023-05-09T15:30:28.072Z,20.00
2023-05-09T15:32:54.458Z,27.35
2023-05-09T15:35:20.946Z,21.33
2023-05-09T15:37:47.288Z,19.38
2023-05-09T15:42:40.377Z,23.48
2023-05-09T15:45:07.508Z,18.63
2023-05-09T15:47:33.907Z,22.67
2023-05-09T15:50:00.337Z,20.58
2023-05-09T15:52:27.710Z,21.02
2023-05-09T15:54:55.813Z,20.80
2023-05-09T15:57:23.153Z,20.40
2023-05-09T15:59:49.511Z,22.17
2023-05-09T16:02:15.907Z,22.55
2023-05-09T16:04:43.835Z,21.02
2023-05-09T16:07:10.110Z,18.17
2023-05-09T16:12:04.157Z,17.88
2023-05-09T16:14:31.162Z,19.73
2023-05-09T16:16:57.532Z,21.58
2023-05-09T16:21:50.074Z,22.25
2023-05-09T16:24:16.691Z,24.92
2023-05-09T16:26:42.994Z,17.38
2023-05-09T16:31:36.253Z,21.85
2023-05-09T16:34:02.916Z,22.45
2023-05-09T16:36:30.261Z,23.92
2023-05-09T16:38:56.628Z,26.23
2023-05-09T16:41:23.019Z,24.75
2023-05-09T16:43:49.419Z,22.20
2023-05-09T16:46:16.174Z,22.25
2023-05-09T16:48:42.628Z,20.05
2023-05-09T16:53:36.223Z,22.33
2023-05-09T16:56:03.836Z,25.77
2023-05-09T16:58:30.270Z,21.13
2023-05-09T17:03:23.807Z,19.58
2023-05-09T17:05:51.130Z,22.73
2023-05-09T17:08:17.468Z,20.85
2023-05-09T17:13:10.252Z,21.23
2023-05-09T17:15:38.223Z,24.55
2023-05-09T17:18:04.968Z,23.27
2023-05-09T17:20:31.706Z,19.77
2023-05-09T17:22:58.028Z,17.15
2023-05-09T17:27:50.532Z,8.15
2023-05-09T17:30:18.339Z,10.88
2023-05-09T17:32:45.835Z,10.70
2023-05-09T17:35:13.573Z,14.00
2023-05-09T17:37:39.944Z,14.60
2023-05-09T17:42:34.110Z,19.80
2023-05-09T17:47:27.344Z,14.30
2023-05-09T17:49:53.640Z,12.43
2023-05-09T17:52:19.902Z,10.95
2023-05-09T17:54:46.686Z,14.63
2023-05-09T17:57:12.991Z,9.93
2023-05-09T17:59:41.279Z,18.63
2023-05-09T18:02:08.028Z,12.93
2023-05-09T18:04:34.592Z,14.35
2023-05-09T18:07:01.439Z,15.25
2023-05-09T18:09:28.066Z,11.25
2023-05-09T18:11:54.497Z,19.10
2023-05-09T18:14:20.802Z,19.40
2023-05-09T18:16:47.151Z,14.43
2023-05-09T18:21:39.891Z,13.52
2023-05-09T18:26:33.897Z,26.80
2023-05-09T18:31:26.674Z,12.48
2023-05-09T18:36:19.207Z,16.15
2023-05-09T18:38:46.567Z,14.63
2023-05-09T18:41:15.449Z,17.40
2023-05-09T18:43:46.127Z,14.07
2023-05-09T18:46:17.254Z,12.82
2023-05-09T18:48:45.114Z,13.25
2023-05-09T18:51:12.095Z,12.90
2023-05-09T18:53:38.521Z,12.25
2023-05-09T18:58:32.409Z,14.98
2023-05-09T19:00:58.875Z,15.90
2023-05-09T19:03:25.412Z,16.27
2023-05-09T19:05:51.660Z,16.98
2023-05-09T19:08:17.990Z,18.60
2023-05-09T19:10:44.761Z,13.23
2023-05-09T19:13:11.955Z,12.73
2023-05-09T19:15:39.697Z,10.82
2023-05-09T19:18:06.257Z,6.95
2023-05-09T19:20:32.575Z,6.00
2023-05-09T19:22:59.137Z,6.00
2023-05-09T19:25:25.941Z,4.93
2023-05-09T19:27:55.520Z,7.63
2023-05-09T19:30:22.010Z,5.50
2023-05-09T19:35:14.683Z,9.10
2023-05-09T19:37:40.963Z,8.90
2023-05-09T19:40:07.855Z,4.10
2023-05-09T19:42:35.200Z,9.48
2023-05-09T19:45:01.862Z,6.50
2023-05-09T19:47:28.266Z,7.65
2023-05-09T19:52:21.031Z,5.60
2023-05-09T19:57:13.662Z,6.13
2023-05-09T19:59:40.080Z,6.85
2023-05-09T20:04:35.107Z,9.48
2023-05-09T20:07:02.452Z,10.13
2023-05-09T20:09:30.316Z,6.63
2023-05-09T20:11:56.605Z,7.72
2023-05-09T20:14:23.007Z,5.90
2023-05-09T20:16:49.398Z,6.50
2023-05-09T20:19:15.884Z,8.77
2023-05-09T20:24:08.917Z,6.25
2023-05-09T20:26:35.229Z,6.75
2023-05-09T20:29:01.656Z,6.72
2023-05-09T20:31:29.018Z,8.52
2023-05-09T20:33:55.626Z,7.75
2023-05-09T20:36:21.921Z,8.65
2023-05-09T20:38:48.273Z,8.00
2023-05-09T20:41:14.651Z,9.13
2023-05-09T20:46:07.235Z,9.20
2023-05-09T20:48:33.608Z,9.77
2023-05-09T20:50:59.928Z,9.95
2023-05-09T20:53:27.532Z,11.82
2023-05-09T20:55:53.869Z,7.70
2023-05-09T20:58:20.305Z,8.70
2023-05-09T21:03:13.736Z,10.30
2023-05-09T21:05:40.771Z,7.40
2023-05-09T21:08:07.107Z,8.95
2023-05-09T21:10:33.430Z,9.88
2023-05-09T21:12:59.774Z,9.27
2023-05-09T21:17:52.392Z,10.05
2023-05-09T21:20:18.938Z,8.23
2023-05-09T21:22:46.002Z,9.60
2023-05-09T21:25:12.827Z,8.73
2023-05-09T21:27:39.113Z,7.32
2023-05-09T21:30:06.342Z,6.38
2023-05-09T21:32:32.670Z,6.78
2023-05-09T21:34:59.035Z,6.95
2023-05-09T21:37:25.501Z,7.32
2023-05-09T21:42:18.156Z,8.52
2023-05-09T21:44:45.003Z,7.65
2023-05-09T21:47:11.613Z,8.93
2023-05-09T21:49:38.600Z,7.80
2023-05-09T21:52:04.888Z,10.73
2023-05-09T21:54:31.175Z,7.40
2023-05-09T21:56:57.433Z,8.50
2023-05-09T21:59:23.714Z,8.35
2023-05-09T22:01:50.090Z,9.63
2023-05-09T22:04:16.388Z,9.05
2023-05-09T22:06:42.881Z,7.55
2023-05-09T22:11:36.419Z,9.48
2023-05-09T22:14:03.529Z,7.05
2023-05-09T22:16:30.241Z,6.07
2023-05-09T22:18:56.930Z,6.95
2023-05-09T22:21:23.249Z,7.03
2023-05-09T22:23:49.560Z,5.43
2023-05-09T22:26:15.827Z,4.72
2023-05-09T22:28:42.170Z,5.07
2023-05-09T22:31:08.671Z,6.00
2023-05-09T22:36:01.539Z,4.95
2023-05-09T22:40:54.046Z,6.03
2023-05-09T22:43:20.369Z,6.43
2023-05-09T22:45:46.877Z,6.13
2023-05-09T22:50:39.450Z,5.28
2023-05-09T22:53:05.770Z,5.40
2023-05-09T22:55:32.073Z,6.38
2023-05-09T22:57:58.330Z,4.75
2023-05-09T23:00:24.640Z,3.78
2023-05-09T23:02:51.084Z,4.38
2023-05-09T23:07:44.256Z,4.20
2023-05-09T23:10:10.570Z,2.35
2023-05-09T23:12:37.969Z,2.40
2023-05-09T23:15:06.237Z,5.40
2023-05-09T23:17:32.574Z,3.05
2023-05-09T23:20:00.555Z,1.95
2023-05-09T23:22:27.001Z,1.90
2023-05-09T23:24:53.259Z,3.45
2023-05-09T23:27:19.533Z,2.40
2023-05-09T23:29:45.797Z,2.08
2023-05-09T23:32:12.072Z,2.72
2023-05-09T23:34:38.817Z,1.98
2023-05-09T23:37:05.097Z,2.15
2023-05-09T23:39:31.821Z,3.17
2023-05-09T23:41:58.164Z,2.15
2023-05-09T23:44:24.473Z,2.05
2023-05-09T23:46:50.825Z,2.25
2023-05-09T23:49:17.179Z,2.30
2023-05-09T23:51:43.603Z,2.10
2023-05-09T23:54:09.873Z,3.63
2023-05-09T23:56:36.205Z,1.70
2023-05-09T23:59:02.525Z,1.35
